Time;durP1;ratioP1;P1;durP2;ratioP2;P2;SDS_P1;SDS_P2;PMS_P1;PMS_P2;Temp;Humidity;BMP_temperature;BMP_pressure;BME280_temperature;BME280_humidity;BME280_pressure;Samples;Min_cycle;Max_cycle;Signal;HPM_P1;HPM_P2
2023/08/22 00:07:11;;;;;;;17.77;12.13;;;;;;;25.70;52.83;101498.19;21070041;28;20560;-62
2023/08/22 00:17:12;;;;;;;17.25;13.15;;;;;;;25.76;53.04;101495.06;21080317;28;20024;-61
2023/08/22 00:27:14;;;;;;;16.30;13.07;;;;;;;25.79;52.97;101499.22;21077768;28;20048;-59
2023/08/22 00:37:15;;;;;;;17.90;14.05;;;;;;;25.80;53.01;101512.13;21074884;28;20085;-61
2023/08/22 00:47:18;;;;;;;16.60;13.50;;;;;;;25.68;52.96;101506.91;21081034;28;20067;-62
2023/08/22 00:57:20;;;;;;;17.15;13.68;;;;;;;25.75;53.01;101527.00;21080941;28;20032;-64
2023/08/22 01:07:31;;;;;;;16.50;14.25;;;;;;;25.74;53.11;101519.72;21073571;28;20457;-61
2023/08/22 01:17:34;;;;;;;17.17;14.82;;;;;;;25.80;53.38;101531.75;21078314;28;20031;-58
2023/08/22 01:27:46;;;;;;;15.43;13.82;;;;;;;25.78;53.31;101532.03;21076546;28;20105;-58
2023/08/22 01:37:51;;;;;;;15.95;14.00;;;;;;;25.80;53.16;101529.78;21063419;28;20442;-57
2023/08/22 01:47:53;;;;;;;16.13;13.60;;;;;;;25.78;52.81;101534.00;21071865;28;20039;-58
2023/08/22 01:57:54;;;;;;;18.88;16.15;;;;;;;25.77;52.91;101530.38;21075791;28;20048;-59
2023/08/22 02:07:55;;;;;;;17.33;15.52;;;;;;;25.75;53.34;101515.78;21013233;28;20040;-57
2023/08/22 02:17:57;;;;;;;16.30;14.60;;;;;;;25.75;53.15;101510.19;21003510;28;20396;-58
2023/08/22 02:27:59;;;;;;;17.63;15.68;;;;;;;25.79;52.80;101504.81;21058947;28;20040;-58
2023/08/22 02:38:00;;;;;;;17.20;15.18;;;;;;;25.78;52.91;101508.78;21079987;28;20035;-58
2023/08/22 02:48:02;;;;;;;17.23;15.43;;;;;;;25.77;53.24;101507.09;21086176;28;20048;-58
2023/08/22 02:58:03;;;;;;;18.45;15.60;;;;;;;25.74;53.03;101508.50;21077809;28;20036;-58
2023/08/22 03:08:05;;;;;;;17.80;15.90;;;;;;;25.75;52.91;101515.78;21083563;28;20109;-60
2023/08/22 03:18:09;;;;;;;18.60;16.25;;;;;;;25.72;52.94;101522.00;21083127;28;20548;-60
2023/08/22 03:28:10;;;;;;;19.15;17.08;;;;;;;25.66;53.24;101512.00;21072948;28;20052;-59
2023/08/22 03:38:12;;;;;;;19.15;16.92;;;;;;;25.67;52.88;101519.25;21075971;28;20559;-60
2023/08/22 03:48:13;;;;;;;18.88;15.73;;;;;;;25.68;52.42;101504.09;21072084;28;20089;-59
2023/08/22 03:58:15;;;;;;;19.45;17.35;;;;;;;25.68;52.71;101503.28;21080937;28;20062;-58
2023/08/22 04:08:19;;;;;;;19.65;17.42;;;;;;;25.73;53.49;101506.84;21074557;28;20040;-60
2023/08/22 04:18:20;;;;;;;21.35;17.38;;;;;;;25.71;53.29;101509.13;21079739;28;20048;-58
2023/08/22 04:28:22;;;;;;;22.20;17.10;;;;;;;25.69;53.81;101516.97;21076895;28;20035;-59
2023/08/22 04:38:23;;;;;;;19.42;16.77;;;;;;;25.61;53.38;101520.44;21082643;28;20048;-59
2023/08/22 04:48:25;;;;;;;19.10;16.48;;;;;;;25.63;53.07;101539.78;21077974;28;20116;-58
2023/08/22 04:58:26;;;;;;;18.20;16.02;;;;;;;25.52;52.57;101517.50;21074047;28;20093;-58
2023/08/22 05:08:27;;;;;;;19.88;16.73;;;;;;;25.58;52.47;101524.69;21070716;28;20040;-58
2023/08/22 05:18:29;;;;;;;21.00;16.30;;;;;;;25.57;52.29;101513.78;21067969;28;20098;-58
2023/08/22 05:28:30;;;;;;;20.52;15.05;;;;;;;25.51;51.92;101520.56;21075965;28;20044;-58
2023/08/22 05:38:32;;;;;;;17.42;15.32;;;;;;;25.51;51.82;101532.59;21074692;28;20036;-56
2023/08/22 05:48:33;;;;;;;18.70;14.95;;;;;;;25.47;51.42;101527.91;21072526;28;20407;-58
2023/08/22 05:58:35;;;;;;;16.98;14.98;;;;;;;25.47;51.57;101519.50;21069933;28;20048;-59
2023/08/22 06:08:36;;;;;;;16.67;14.57;;;;;;;25.45;51.61;101527.38;21068249;28;20524;-58
2023/08/22 06:18:37;;;;;;;15.88;14.23;;;;;;;25.42;51.39;101511.16;21059766;28;20043;-58
2023/08/22 06:28:39;;;;;;;16.38;14.63;;;;;;;25.38;51.13;101516.50;21068899;28;20044;-58
2023/08/22 06:38:40;;;;;;;16.05;13.73;;;;;;;25.36;51.19;101532.78;21068576;28;20036;-58
2023/08/22 06:48:42;;;;;;;16.38;14.00;;;;;;;25.34;50.96;101527.50;21068541;28;20036;-58
2023/08/22 06:58:43;;;;;;;15.32;13.65;;;;;;;25.32;50.83;101520.50;21067529;28;20395;-57
2023/08/22 07:08:48;;;;;;;13.73;12.20;;;;;;;25.28;50.74;101514.66;21071655;28;20056;-58
2023/08/22 07:18:50;;;;;;;13.70;12.30;;;;;;;25.25;50.78;101515.28;21081636;28;20048;-58
2023/08/22 07:28:51;;;;;;;15.30;13.70;;;;;;;25.23;50.57;101511.91;21080915;28;20044;-58
2023/08/22 07:38:52;;;;;;;13.88;12.32;;;;;;;25.21;50.48;101510.56;21081748;28;20044;-58
2023/08/22 07:48:54;;;;;;;14.60;13.02;;;;;;;25.09;49.49;101508.16;21071867;28;20052;-57
2023/08/22 07:58:55;;;;;;;14.48;12.60;;;;;;;25.19;50.30;101513.63;21079163;28;20048;-57
2023/08/22 08:08:56;;;;;;;14.27;12.77;;;;;;;25.18;50.59;101514.78;21060955;28;20048;-58
2023/08/22 08:18:58;;;;;;;13.63;12.30;;;;;;;25.17;50.52;101521.50;21074640;28;20552;-58
2023/08/22 08:28:59;;;;;;;14.02;12.52;;;;;;;25.15;51.50;101532.16;21073867;28;22163;-58
2023/08/22 08:39:00;;;;;;;14.52;13.02;;;;;;;25.33;54.78;101539.81;21076998;28;20070;-59
2023/08/22 08:49:04;;;;;;;13.98;12.57;;;;;;;25.61;54.90;101556.88;21070016;28;20044;-59
2023/08/22 08:59:05;;;;;;;17.02;12.70;;;;;;;25.76;54.50;101551.13;21073256;28;20036;-59
2023/08/22 09:09:08;;;;;;;13.95;12.45;;;;;;;25.85;54.34;101543.72;21074719;28;20055;-59
2023/08/22 09:19:12;;;;;;;13.88;12.48;;;;;;;26.00;53.91;101550.25;21072010;28;20105;-58
2023/08/22 09:29:13;;;;;;;13.82;12.32;;;;;;;26.14;53.73;101562.41;21072070;28;20031;-59
2023/08/22 09:39:18;;;;;;;13.30;12.00;;;;;;;26.25;53.53;101599.56;21072073;28;20062;-58
2023/08/22 09:49:20;;;;;;;13.02;11.73;;;;;;;26.24;53.44;101595.91;21065883;28;20052;-58
2023/08/22 09:59:23;;;;;;;12.88;11.52;;;;;;;26.38;53.01;101600.78;21070639;28;20040;-58
2023/08/22 10:09:26;;;;;;;12.27;10.98;;;;;;;26.45;52.93;101613.34;21071010;28;20048;-59
2023/08/22 10:19:29;;;;;;;12.45;11.15;;;;;;;26.50;52.81;101637.69;21067954;28;20036;-57
2023/08/22 10:29:50;;;;;;;12.27;11.07;;;;;;;26.48;52.91;101634.34;21066451;28;20407;-58
2023/08/22 10:39:54;;;;;;;12.38;11.07;;;;;;;26.62;52.39;101652.13;21066322;28;20098;-59
2023/08/22 10:49:59;;;;;;;11.65;10.45;;;;;;;26.66;52.39;101663.56;21063678;28;20078;-58
2023/08/22 11:00:22;;;;;;;11.60;10.50;;;;;;;26.72;52.17;101673.59;21066207;28;20044;-59
2023/08/22 11:10:25;;;;;;;11.35;10.15;;;;;;;26.73;52.05;101676.09;21083051;28;20036;-59
2023/08/22 11:20:27;;;;;;;10.95;9.85;;;;;;;26.75;51.77;101696.28;21083172;28;20044;-56
2023/08/22 11:30:28;;;;;;;11.10;10.00;;;;;;;26.80;51.65;101704.66;21081023;28;20060;-58
2023/08/22 11:40:30;;;;;;;16.38;10.88;;;;;;;26.85;51.62;101712.16;21079218;28;20340;-58
2023/08/22 11:50:31;;;;;;;12.05;10.38;;;;;;;26.82;51.32;101709.94;21083648;28;20036;-57
2023/08/22 12:00:36;;;;;;;15.77;9.98;;;;;;;26.93;51.29;101730.28;21079362;28;20864;-59
2023/08/22 12:10:42;;;;;;;11.15;9.50;;;;;;;26.97;50.96;101720.94;21081917;28;20070;-59
2023/08/22 12:20:48;;;;;;;11.50;9.75;;;;;;;26.94;51.25;101710.34;21077347;28;20036;-59
2023/08/22 12:30:49;;;;;;;13.02;9.85;;;;;;;27.01;51.00;101726.78;21080787;28;20437;-60
2023/08/22 12:40:51;;;;;;;11.57;9.38;;;;;;;27.04;50.82;101731.81;21081170;28;20047;-60
2023/08/22 12:50:52;;;;;;;11.95;9.90;;;;;;;27.09;50.69;101751.44;21080855;28;20057;-59
2023/08/22 13:00:54;;;;;;;11.07;9.82;;;;;;;27.11;50.44;101749.97;21079609;28;20117;-60
2023/08/22 13:10:55;;;;;;;10.70;8.88;;;;;;;27.05;50.23;101753.16;21077964;28;20450;-59
2023/08/22 13:20:56;;;;;;;11.25;9.32;;;;;;;27.15;50.26;101761.44;21078420;28;20469;-59
2023/08/22 13:30:58;;;;;;;11.02;9.27;;;;;;;27.16;50.02;101751.03;21077635;28;20040;-59
2023/08/22 13:40:59;;;;;;;9.43;8.43;;;;;;;27.19;49.77;101758.88;21062894;28;20491;-59
2023/08/22 13:51:01;;;;;;;9.40;8.30;;;;;;;27.23;49.82;101763.56;21077131;28;20121;-59
2023/08/22 14:01:06;;;;;;;9.77;8.75;;;;;;;27.26;49.58;101779.84;21076060;28;20101;-60
2023/08/22 14:11:07;;;;;;;12.32;8.98;;;;;;;27.28;50.00;101787.97;21041118;28;20048;-59
2023/08/22 14:21:09;;;;;;;136.35;93.25;;;;;;;26.76;46.02;101790.63;21011391;28;20089;-58
2023/08/22 14:31:10;;;;;;;118.70;81.80;;;;;;;26.06;43.53;101773.41;21040157;28;20373;-59
2023/08/22 14:41:14;;;;;;;89.25;61.50;;;;;;;25.74;42.65;101773.97;21006415;28;20037;-60
2023/08/22 14:51:16;;;;;;;73.32;51.80;;;;;;;25.41;41.75;101786.88;21007177;28;20049;-59
2023/08/22 15:01:17;;;;;;;148.40;109.93;;;;;;;25.23;42.22;101761.22;21005803;28;20068;-58
2023/08/22 15:11:19;;;;;;;131.05;93.03;;;;;;;25.19;42.19;101785.31;21005139;28;20506;-59
2023/08/22 15:21:20;;;;;;;94.82;68.18;;;;;;;25.00;41.91;101757.13;21066936;28;20377;-59
2023/08/22 15:31:21;;;;;;;75.25;56.22;;;;;;;24.85;41.64;101741.25;21085895;28;20056;-59
2023/08/22 15:41:23;;;;;;;61.83;47.15;;;;;;;24.84;41.62;101750.78;21085252;28;20040;-59
2023/08/22 15:51:24;;;;;;;52.13;39.80;;;;;;;24.71;41.36;101759.81;21029046;28;20044;-58
2023/08/22 16:01:26;;;;;;;43.45;33.30;;;;;;;24.61;41.06;101775.81;21001173;28;20044;-61
2023/08/22 16:11:27;;;;;;;40.13;29.70;;;;;;;24.51;40.79;101754.28;21000768;28;20090;-59
2023/08/22 16:21:28;;;;;;;31.38;24.83;;;;;;;24.49;40.98;101778.94;21016782;28;20035;-58
2023/08/22 16:31:30;;;;;;;27.60;21.02;;;;;;;24.44;41.67;101776.16;21082396;28;20031;-58
2023/08/22 16:41:32;;;;;;;23.75;19.23;;;;;;;24.45;41.65;101766.63;21008426;28;20484;-60
2023/08/22 16:51:34;;;;;;;22.10;17.63;;;;;;;24.28;41.53;101748.22;20996989;28;20048;-59
2023/08/22 17:01:35;;;;;;;28.13;15.77;;;;;;;24.38;41.19;101760.53;20996272;28;20440;-58
2023/08/22 17:11:37;;;;;;;25.95;14.90;;;;;;;24.33;41.07;101752.94;21014107;28;20387;-61
2023/08/22 17:21:38;;;;;;;19.58;13.18;;;;;;;24.21;41.37;101761.63;21071952;28;20045;-59
2023/08/22 17:31:39;;;;;;;17.98;12.02;;;;;;;24.13;41.64;101765.00;21069893;28;20032;-59
2023/08/22 17:41:41;;;;;;;13.73;11.93;;;;;;;24.07;41.52;101749.38;21047620;28;20033;-60
2023/08/22 17:51:42;;;;;;;15.43;10.82;;;;;;;24.00;41.89;101732.03;21010363;28;20124;-59
2023/08/22 18:01:43;;;;;;;14.82;10.85;;;;;;;23.98;42.18;101714.72;21010857;28;20032;-57
2023/08/22 18:11:48;;;;;;;11.05;9.85;;;;;;;24.08;42.14;101709.09;21008398;28;20041;-60
2023/08/22 18:21:49;;;;;;;13.68;9.48;;;;;;;24.02;41.39;101722.25;21047788;28;20051;-59
2023/08/22 18:31:51;;;;;;;13.45;8.77;;;;;;;24.11;42.71;101716.94;21027664;28;20048;-58
2023/08/22 18:41:52;;;;;;;10.57;8.00;;;;;;;23.99;42.82;101672.50;20990587;28;20048;-61
2023/08/22 18:51:54;;;;;;;11.43;7.47;;;;;;;24.18;43.29;101692.28;20995457;28;20113;-61
2023/08/22 19:01:55;;;;;;;9.85;7.13;;;;;;;24.16;43.48;101668.53;21016303;28;20110;-60
2023/08/22 19:11:56;;;;;;;11.80;7.00;;;;;;;24.21;43.43;101672.16;21068665;28;20043;-60
2023/08/22 19:21:58;;;;;;;8.52;7.38;;;;;;;24.22;43.53;101673.81;21030918;28;20165;-59
2023/08/22 19:31:59;;;;;;;9.30;6.72;;;;;;;24.27;43.26;101676.59;21004577;28;20048;-58
2023/08/22 19:42:02;;;;;;;9.63;6.80;;;;;;;24.22;43.19;101676.59;21003337;28;20040;-58
2023/08/22 19:52:03;;;;;;;8.90;6.28;;;;;;;24.25;43.19;101678.84;21038723;28;20056;-58
2023/08/22 20:02:05;;;;;;;8.90;6.72;;;;;;;24.23;43.14;101703.44;21024034;28;20101;-57
2023/08/22 20:12:06;;;;;;;8.27;6.68;;;;;;;24.25;43.24;101689.19;21010420;28;20063;-57
2023/08/22 20:22:08;;;;;;;8.55;6.90;;;;;;;24.22;43.02;101695.34;20998240;28;20450;-57
2023/08/22 20:32:09;;;;;;;10.10;6.78;;;;;;;24.18;43.48;101697.88;20998557;28;20041;-57
2023/08/22 20:42:10;;;;;;;9.48;7.15;;;;;;;24.36;47.05;101685.22;21048611;28;20090;-56
2023/08/22 20:52:12;;;;;;;9.57;6.65;;;;;;;24.71;48.13;101687.03;20996113;28;20036;-58
2023/08/22 21:02:16;;;;;;;8.90;7.22;;;;;;;24.97;47.53;101673.72;21036653;28;20036;-57
2023/08/22 21:12:17;;;;;;;10.57;6.20;;;;;;;25.20;47.43;101683.38;21079270;28;20040;-57
2023/08/22 21:22:19;;;;;;;8.73;6.20;;;;;;;25.33;47.37;101687.47;21053244;28;20044;-57
2023/08/22 21:32:20;;;;;;;9.85;6.82;;;;;;;25.45;47.35;101675.88;20992728;28;20084;-59
2023/08/22 21:42:21;;;;;;;7.32;6.03;;;;;;;25.62;47.36;101698.69;21069639;28;20036;-57
2023/08/22 21:52:23;;;;;;;8.88;6.47;;;;;;;25.75;47.23;101717.63;21076220;28;20445;-58
2023/08/22 22:02:24;;;;;;;8.60;6.63;;;;;;;25.84;47.22;101710.28;21075330;28;20040;-58
2023/08/22 22:12:29;;;;;;;10.02;6.45;;;;;;;25.97;47.96;101721.91;21052397;28;20040;-57
2023/08/22 22:22:30;;;;;;;11.52;7.25;;;;;;;26.04;47.66;101725.22;20993640;28;20029;-58
2023/08/22 22:32:32;;;;;;;9.65;6.32;;;;;;;26.12;47.40;101733.00;21074572;28;20036;-57
2023/08/22 22:42:33;;;;;;;9.27;6.05;;;;;;;26.08;47.21;101727.13;21064549;28;20441;-55
2023/08/22 22:52:34;;;;;;;10.90;6.35;;;;;;;26.26;46.81;101752.75;21066050;28;20461;-57
2023/08/22 23:02:36;;;;;;;9.05;6.38;;;;;;;26.29;45.99;101750.16;21080068;28;20545;-58
2023/08/22 23:12:37;;;;;;;7.55;6.15;;;;;;;26.38;45.53;101744.72;21080087;28;20109;-58
2023/08/22 23:22:40;;;;;;;9.07;6.30;;;;;;;26.40;45.08;101755.69;21081463;28;20048;-58
2023/08/22 23:32:41;;;;;;;12.77;5.38;;;;;;;26.54;45.14;101759.47;21078329;28;20184;-59
2023/08/22 23:42:42;;;;;;;12.57;6.32;;;;;;;26.49;45.10;101756.72;21081904;28;20456;-55
2023/08/22 23:52:44;;;;;;;13.57;5.82;;;;;;;26.51;44.83;101762.84;21084772;28;20101;-56
